createdAt,value
2018-01-13T00:01:27.067Z,44.37
2018-01-13T00:06:28.478Z,47.80
2018-01-13T00:11:29.716Z,40.30
2018-01-13T00:16:31.302Z,36.67
2018-01-13T00:21:34.554Z,44.27
2018-01-13T00:26:35.610Z,45.37
2018-01-13T00:31:37.478Z,38.70
2018-01-13T00:36:39.069Z,35.77
2018-01-13T00:41:40.414Z,40.97
2018-01-13T00:46:41.657Z,37.17
2018-01-13T00:51:43.001Z,43.80
2018-01-13T00:56:44.306Z,41.87
2018-01-13T01:01:45.558Z,42.27
2018-01-13T01:06:46.801Z,42.23
2018-01-13T01:11:48.036Z,36.77
2018-01-13T01:16:50.411Z,42.63
2018-01-13T01:21:55.946Z,39.80
2018-01-13T01:26:58.260Z,39.43
2018-01-13T01:32:00.446Z,44.10
2018-01-13T01:37:02.183Z,37.70
2018-01-13T01:42:03.520Z,39.07
2018-01-13T01:47:05.771Z,34.77
2018-01-13T01:52:07.697Z,39.63
2018-01-13T01:57:10.748Z,38.53
2018-01-13T02:02:12.374Z,34.57
2018-01-13T02:07:13.559Z,37.80
2018-01-13T02:12:14.962Z,38.90
2018-01-13T02:17:16.355Z,39.10
2018-01-13T02:22:18.644Z,39.53
2018-01-13T02:27:20.078Z,38.07
2018-01-13T02:32:21.206Z,36.63
2018-01-13T02:37:22.349Z,44.00
2018-01-13T02:42:23.811Z,44.23
2018-01-13T02:47:24.931Z,44.37
2018-01-13T02:52:26.256Z,40.20
2018-01-13T02:57:27.809Z,47.20
2018-01-13T03:02:29.196Z,46.67
2018-01-13T03:07:30.594Z,42.60
2018-01-13T03:12:32.605Z,46.73
2018-01-13T03:17:34.146Z,47.63
2018-01-13T03:22:36.504Z,41.87
2018-01-13T03:27:38.911Z,48.73
2018-01-13T03:32:40.790Z,42.37
2018-01-13T03:37:42.793Z,50.00
2018-01-13T03:42:44.446Z,45.57
2018-01-13T03:47:45.808Z,55.03
2018-01-13T03:52:48.037Z,50.23
2018-01-13T03:57:49.290Z,41.60
2018-01-13T04:02:50.820Z,43.60
2018-01-13T04:07:52.176Z,45.47
2018-01-13T04:12:53.697Z,44.83
2018-01-13T04:17:55.009Z,38.27
2018-01-13T04:22:56.864Z,43.37
2018-01-13T04:27:59.174Z,41.03
2018-01-13T04:33:00.515Z,44.93
2018-01-13T04:38:03.124Z,34.77
2018-01-13T04:43:04.368Z,35.77
2018-01-13T04:48:05.819Z,40.60
2018-01-13T04:53:06.954Z,30.10
2018-01-13T04:58:08.895Z,41.03
2018-01-13T05:03:10.034Z,35.03
2018-01-13T05:08:11.300Z,33.57
2018-01-13T05:13:12.572Z,33.63
2018-01-13T05:18:13.639Z,38.03
2018-01-13T05:23:15.609Z,35.30
2018-01-13T05:28:18.128Z,36.33
2018-01-13T05:33:19.229Z,47.10
2018-01-13T05:38:20.553Z,34.97
2018-01-13T05:43:21.766Z,26.77
2018-01-13T05:48:23.209Z,37.50
2018-01-13T05:53:24.712Z,33.83
2018-01-13T05:58:26.164Z,32.70
2018-01-13T06:03:27.363Z,28.13
2018-01-13T06:08:28.905Z,30.10
2018-01-13T06:13:30.378Z,26.50
2018-01-13T06:18:32.273Z,30.50
2018-01-13T06:23:33.875Z,25.90
2018-01-13T06:28:35.784Z,30.10
2018-01-13T06:33:37.162Z,26.13
2018-01-13T06:38:38.516Z,27.07
2018-01-13T06:43:39.658Z,21.23
2018-01-13T06:48:41.952Z,24.50
2018-01-13T06:53:43.170Z,22.77
2018-01-13T06:58:44.559Z,22.90
2018-01-13T07:03:45.811Z,22.83
2018-01-13T07:08:46.974Z,27.93
2018-01-13T07:13:48.195Z,28.30
2018-01-13T07:18:49.528Z,25.00
2018-01-13T07:23:51.799Z,27.13
2018-01-13T07:28:53.678Z,35.63
2018-01-13T07:33:55.712Z,30.60
2018-01-13T07:38:57.701Z,41.00
2018-01-13T07:43:59.158Z,47.10
2018-01-13T07:49:00.546Z,37.73
2018-01-13T07:54:08.780Z,36.03
2018-01-13T07:59:10.019Z,32.07
2018-01-13T08:04:11.319Z,28.47
2018-01-13T08:09:12.537Z,24.90
2018-01-13T08:14:13.714Z,27.80
2018-01-13T08:19:16.543Z,28.33
2018-01-13T08:24:17.955Z,29.43
2018-01-13T08:29:19.372Z,28.50
2018-01-13T08:34:20.722Z,28.97
2018-01-13T08:39:22.082Z,31.70
2018-01-13T08:44:24.073Z,30.93
2018-01-13T08:49:25.427Z,28.13
2018-01-13T08:54:26.608Z,27.23
2018-01-13T08:59:27.897Z,29.23
2018-01-13T09:04:29.436Z,25.73
2018-01-13T09:09:31.171Z,23.90
2018-01-13T09:14:32.526Z,25.27
2018-01-13T09:19:34.378Z,21.63
2018-01-13T09:24:35.562Z,25.57
2018-01-13T09:29:37.081Z,20.67
2018-01-13T09:34:39.156Z,20.20
2018-01-13T09:39:40.424Z,24.43
2018-01-13T09:44:41.711Z,19.93
2018-01-13T09:49:44.270Z,15.60
2018-01-13T09:54:51.887Z,17.87
2018-01-13T09:59:53.112Z,17.03
2018-01-13T10:04:54.342Z,17.90
2018-01-13T10:09:55.350Z,19.40
2018-01-13T10:14:56.380Z,23.60
2018-01-13T10:19:57.390Z,21.10
2018-01-13T10:24:58.394Z,21.10
2018-01-13T10:29:59.386Z,19.67
2018-01-13T10:35:00.401Z,19.67
2018-01-13T10:40:01.414Z,18.40
2018-01-13T10:45:09.771Z,18.43
2018-01-13T10:50:10.795Z,18.97
2018-01-13T10:55:12.866Z,21.10
2018-01-13T11:00:13.891Z,20.90
2018-01-13T11:05:15.186Z,22.20
2018-01-13T11:10:16.358Z,18.90
2018-01-13T11:15:17.630Z,21.27
2018-01-13T11:20:19.128Z,19.27
2018-01-13T11:25:20.629Z,21.70
2018-01-13T11:30:28.642Z,20.00
2018-01-13T11:35:29.870Z,18.20
2018-01-13T11:40:31.806Z,24.50
2018-01-13T11:45:33.922Z,19.60
2018-01-13T11:50:35.654Z,20.37
2018-01-13T11:55:36.931Z,21.93
2018-01-13T12:00:38.168Z,19.83
2018-01-13T12:05:40.277Z,22.03
2018-01-13T12:10:43.002Z,19.63
2018-01-13T12:15:44.203Z,17.70
2018-01-13T12:20:45.497Z,21.90
2018-01-13T12:25:46.754Z,18.47
2018-01-13T12:30:48.529Z,18.07
2018-01-13T12:35:50.606Z,19.97
2018-01-13T12:40:51.879Z,16.97
2018-01-13T12:45:53.459Z,20.57
2018-01-13T12:50:54.702Z,19.53
2018-01-13T12:55:55.698Z,18.17
2018-01-13T13:00:56.691Z,21.90
2018-01-13T13:05:57.694Z,25.17
2018-01-13T13:10:59.432Z,24.40
2018-01-13T13:16:00.435Z,17.60
2018-01-13T13:21:01.432Z,18.43
2018-01-13T13:26:02.908Z,20.67
2018-01-13T13:31:04.395Z,20.67
2018-01-13T13:36:06.286Z,24.17
2018-01-13T13:41:07.835Z,22.30
2018-01-13T13:46:09.114Z,55.90
2018-01-13T13:51:11.203Z,23.87
2018-01-13T13:56:13.363Z,20.90
2018-01-13T14:01:28.507Z,25.30
2018-01-13T14:06:19.875Z,26.70
2018-01-13T14:11:21.134Z,25.57
2018-01-13T14:16:22.446Z,26.00
2018-01-13T14:21:23.605Z,25.87
2018-01-13T14:26:25.862Z,28.13
2018-01-13T14:31:27.471Z,28.97
2018-01-13T14:36:29.428Z,25.17
2018-01-13T14:41:31.333Z,24.70
2018-01-13T14:46:32.650Z,27.00
2018-01-13T14:51:34.245Z,21.50
2018-01-13T14:56:35.452Z,25.30
2018-01-13T15:01:36.827Z,35.13
2018-01-13T15:06:38.085Z,29.33
2018-01-13T15:11:39.809Z,26.97
2018-01-13T15:16:41.211Z,27.80
2018-01-13T15:21:43.433Z,27.03
2018-01-13T15:26:44.736Z,28.20
2018-01-13T15:31:46.103Z,28.00
2018-01-13T15:36:47.503Z,31.80
2018-01-13T15:41:49.757Z,31.60
2018-01-13T15:46:51.097Z,27.03
2018-01-13T15:51:53.352Z,26.10
2018-01-13T15:56:54.910Z,44.97
2018-01-13T16:01:56.346Z,28.40
2018-01-13T16:06:57.644Z,32.60
2018-01-13T16:11:59.104Z,31.30
2018-01-13T16:17:01.255Z,35.40
2018-01-13T16:22:03.459Z,36.03
2018-01-13T16:27:04.855Z,37.33
2018-01-13T16:32:06.604Z,33.80
2018-01-13T16:37:07.807Z,32.07
2018-01-13T16:42:09.086Z,33.47
2018-01-13T16:47:10.506Z,30.63
2018-01-13T16:52:12.336Z,43.07
2018-01-13T16:57:14.398Z,27.80
2018-01-13T17:02:15.664Z,32.23
2018-01-13T17:07:17.067Z,31.67
2018-01-13T17:12:18.328Z,28.97
2018-01-13T17:17:19.838Z,32.40
2018-01-13T17:22:21.216Z,34.07
2018-01-13T17:27:25.300Z,34.63
2018-01-13T17:32:26.556Z,36.93
2018-01-13T17:37:27.800Z,30.13
2018-01-13T17:42:29.627Z,35.83
2018-01-13T17:47:31.465Z,32.93
2018-01-13T17:52:32.701Z,34.90
2018-01-13T17:57:33.694Z,32.27
2018-01-13T18:02:35.439Z,36.00
2018-01-13T18:07:36.766Z,28.67
2018-01-13T18:12:37.848Z,38.53
2018-01-13T18:17:39.008Z,50.63
2018-01-13T18:22:40.398Z,33.63
2018-01-13T18:27:41.645Z,106.40
2018-01-13T18:32:42.719Z,44.83
2018-01-13T18:37:44.764Z,32.57
2018-01-13T18:42:46.239Z,39.20
2018-01-13T18:47:47.296Z,32.07
2018-01-13T18:52:48.654Z,34.20
2018-01-13T18:57:50.604Z,31.20
2018-01-13T19:02:52.521Z,29.00
2018-01-13T19:07:53.751Z,29.83
2018-01-13T19:12:54.754Z,28.23
2018-01-13T19:17:56.026Z,26.67
2018-01-13T19:22:57.051Z,32.03
2018-01-13T19:27:59.018Z,30.73
2018-01-13T19:33:00.037Z,30.53
2018-01-13T19:38:01.775Z,32.73
2018-01-13T19:43:03.588Z,22.07
2018-01-13T19:48:05.126Z,28.63
2018-01-13T19:53:07.439Z,35.07
2018-01-13T19:58:08.586Z,25.43
2018-01-13T20:03:09.635Z,28.77
2018-01-13T20:08:11.955Z,25.77
2018-01-13T20:13:13.044Z,20.03
2018-01-13T20:18:14.443Z,26.80
2018-01-13T20:23:16.425Z,27.60
2018-01-13T20:28:17.499Z,24.73
2018-01-13T20:33:18.571Z,26.10
2018-01-13T20:38:19.814Z,24.83
2018-01-13T20:43:22.150Z,31.53
2018-01-13T20:48:23.684Z,27.83
2018-01-13T20:53:25.466Z,28.27
2018-01-13T20:58:26.986Z,24.43
2018-01-13T21:03:28.327Z,23.30
2018-01-13T21:08:29.876Z,24.87
2018-01-13T21:13:31.275Z,27.07
2018-01-13T21:18:32.588Z,26.37
2018-01-13T21:23:35.274Z,26.30
2018-01-13T21:28:36.664Z,23.90
2018-01-13T21:33:38.694Z,26.67
2018-01-13T21:38:39.904Z,25.53
2018-01-13T21:43:41.307Z,27.17
2018-01-13T21:48:43.404Z,31.40
2018-01-13T21:53:45.467Z,25.30
2018-01-13T21:58:46.850Z,28.33
2018-01-13T22:03:47.923Z,26.20
2018-01-13T22:08:49.298Z,24.73
2018-01-13T22:13:50.306Z,27.47
2018-01-13T22:18:51.361Z,28.23
2018-01-13T22:23:52.378Z,31.03
2018-01-13T22:28:53.387Z,30.00
2018-01-13T22:33:54.394Z,29.40
2018-01-13T22:38:56.391Z,28.10
2018-01-13T22:43:58.151Z,28.40
2018-01-13T22:48:59.363Z,31.30
2018-01-13T22:54:02.955Z,29.03
2018-01-13T22:59:04.367Z,29.43
2018-01-13T23:04:05.454Z,30.20
2018-01-13T23:09:06.515Z,28.47
2018-01-13T23:14:07.550Z,28.43
2018-01-13T23:19:08.839Z,30.43
2018-01-13T23:24:09.854Z,36.53
2018-01-13T23:29:11.827Z,35.47
2018-01-13T23:34:12.860Z,32.00
2018-01-13T23:39:13.867Z,28.60
2018-01-13T23:44:14.931Z,29.70
2018-01-13T23:49:15.978Z,35.23
2018-01-13T23:54:17.247Z,28.33
2018-01-13T23:59:18.306Z,32.13
